Time;durP1;ratioP1;P1;durP2;ratioP2;P2;SDS_P1;SDS_P2;PMS_P1;PMS_P2;Temp;Humidity;BMP_temperature;BMP_pressure;BME280_temperature;BME280_humidity;BME280_pressure;Samples;Min_cycle;Max_cycle;Signal;HPM_P1;HPM_P2
2023/04/05 00:00:42;;;;;;;15.55;10.00;;;;;;;0.45;99.62;102501.28;5052739;28;20394;-75
2023/04/05 00:03:08;;;;;;;15.60;9.93;;;;;;;0.40;99.29;102492.78;5052901;28;20032;-75
2023/04/05 00:05:35;;;;;;;17.23;10.38;;;;;;;0.42;99.00;102495.34;5053079;28;20033;-77
2023/04/05 00:08:01;;;;;;;13.88;9.93;;;;;;;0.25;99.31;102472.34;5052756;28;20029;-76
2023/04/05 00:10:27;;;;;;;13.48;9.15;;;;;;;0.25;99.26;102479.97;5053023;28;20377;-76
2023/04/05 00:12:53;;;;;;;13.07;9.52;;;;;;;0.33;99.58;102500.34;5052593;28;20040;-76
2023/04/05 00:15:18;;;;;;;14.82;9.98;;;;;;;0.11;99.95;102474.81;5052698;28;20104;-77
2023/04/05 00:17:44;;;;;;;13.07;9.05;;;;;;;0.30;99.59;102497.81;5052662;28;20033;-77
2023/04/05 00:20:10;;;;;;;15.95;9.35;;;;;;;-0.04;98.54;102457.78;5051576;28;20028;-76
2023/04/05 00:22:37;;;;;;;15.95;9.75;;;;;;;-0.12;98.99;102451.78;5052401;28;20068;-75
2023/04/05 00:25:03;;;;;;;15.32;9.95;;;;;;;0.04;99.38;102478.16;5052703;28;20166;-78
2023/04/05 00:27:29;;;;;;;13.57;8.70;;;;;;;-0.06;99.67;102473.84;5052547;28;20074;-77
2023/04/05 00:29:54;;;;;;;14.63;9.30;;;;;;;-0.02;99.85;102491.66;5052523;28;20029;-76
2023/04/05 00:32:22;;;;;;;13.88;8.95;;;;;;;-0.05;100.00;102491.63;5052499;28;20025;-77
2023/04/05 00:34:48;;;;;;;15.23;9.50;;;;;;;-0.11;100.00;102483.94;5052473;28;20031;-76
2023/04/05 00:37:13;;;;;;;13.32;9.20;;;;;;;-0.14;100.00;102489.03;5051692;28;20087;-78
2023/04/05 00:39:38;;;;;;;14.70;9.88;;;;;;;-0.18;100.00;102481.38;5052045;28;20486;-77
2023/04/05 00:42:05;;;;;;;15.90;10.00;;;;;;;-0.46;100.00;102434.59;5052394;28;20144;-77
2023/04/05 00:44:33;;;;;;;16.35;10.13;;;;;;;-0.24;100.00;102484.72;5067793;28;20029;-78
2023/04/05 00:47:00;;;;;;;14.05;9.20;;;;;;;-0.34;100.00;102460.94;5052332;28;20025;-77
2023/04/05 00:49:27;;;;;;;14.55;9.32;;;;;;;-0.30;100.00;102477.88;5052199;28;20485;-80
2023/04/05 00:51:53;;;;;;;15.00;9.52;;;;;;;-0.33;100.00;102479.56;5052295;28;20453;-80
2023/04/05 00:54:18;;;;;;;12.15;8.68;;;;;;;-0.35;100.00;102474.47;5052148;28;20040;-77
2023/04/05 00:56:44;;;;;;;13.90;9.13;;;;;;;-0.44;100.00;102461.69;5052149;28;20025;-80
2023/04/05 00:59:09;;;;;;;13.95;9.07;;;;;;;-0.46;100.00;102462.53;5052269;28;20033;-77
2023/04/05 01:01:38;;;;;;;14.52;9.20;;;;;;;-0.60;100.00;102442.09;5052022;28;20035;-80
2023/04/05 01:04:05;;;;;;;14.57;8.95;;;;;;;-0.87;100.00;102423.25;5067078;28;20037;-78
2023/04/05 01:07:03;;;;;;;14.00;9.00;;;;;;;-0.52;100.00;102481.06;5067234;28;20040;-79
2023/04/05 01:09:32;;;;;;;15.25;9.23;;;;;;;-0.57;100.00;102475.13;5051992;28;20090;-76
2023/04/05 01:12:01;;;;;;;13.45;8.95;;;;;;;-0.74;100.00;102462.25;5067579;28;20029;-79
2023/04/05 01:14:26;;;;;;;15.20;9.30;;;;;;;-1.05;100.00;102412.94;5051909;28;20097;-79
2023/04/05 01:16:57;;;;;;;15.40;8.95;;;;;;;-0.78;100.00;102464.78;5052075;28;20112;-78
2023/04/05 01:19:26;;;;;;;15.18;8.88;;;;;;;-0.77;100.00;102466.47;5051934;28;20397;-78
2023/04/05 01:22:15;;;;;;;14.38;9.70;;;;;;;-0.79;100.00;102465.56;5051849;28;20470;-78
2023/04/05 01:25:01;;;;;;;14.82;9.88;;;;;;;-0.81;100.00;102468.09;5046321;28;20036;-76
2023/04/05 01:28:06;;;;;;;15.73;9.60;;;;;;;-0.82;100.00;102466.41;5051900;28;20071;-79
2023/04/05 01:30:36;;;;;;;16.38;9.32;;;;;;;-1.11;100.00;102422.13;5051985;28;20024;-78
2023/04/05 01:33:22;;;;;;;17.33;10.27;;;;;;;-0.88;100.00;102466.34;5051953;28;20029;-76
2023/04/05 01:36:07;;;;;;;13.73;9.15;;;;;;;-1.00;100.00;102441.69;5051681;28;20108;-79
2023/04/05 01:38:38;;;;;;;16.17;9.75;;;;;;;-1.04;100.00;102434.91;5051478;28;20041;-80
2023/04/05 01:41:03;;;;;;;17.08;10.23;;;;;;;-0.97;100.00;102451.91;5051814;28;20115;-78
2023/04/05 01:43:28;;;;;;;15.77;10.52;;;;;;;-1.01;100.00;102446.75;5051683;28;20104;-81
2023/04/05 01:45:54;;;;;;;14.30;10.30;;;;;;;-1.05;100.00;102445.88;5051489;28;20107;-80
2023/04/05 01:48:19;;;;;;;15.55;10.07;;;;;;;-1.07;100.00;102445.03;5051735;28;20055;-76
2023/04/05 01:50:45;;;;;;;15.70;9.60;;;;;;;-1.19;100.00;102430.50;5054721;28;20103;-79
2023/04/05 01:53:10;;;;;;;14.90;10.27;;;;;;;-1.27;100.00;102414.38;5055340;28;20045;-78
2023/04/05 01:55:36;;;;;;;14.27;10.05;;;;;;;-1.23;100.00;102428.78;5055551;28;20373;-75
2023/04/05 01:58:01;;;;;;;15.00;10.48;;;;;;;-1.22;100.00;102427.94;5055496;28;20021;-75
2023/04/05 02:00:27;;;;;;;17.35;10.50;;;;;;;-1.14;100.00;102444.94;5054914;28;20036;-75
2023/04/05 02:02:52;;;;;;;14.85;10.27;;;;;;;-1.46;100.00;102384.59;5054978;28;20021;-76
2023/04/05 02:05:17;;;;;;;15.95;10.10;;;;;;;-1.16;100.00;102432.25;5054916;28;20032;-76
2023/04/05 02:07:43;;;;;;;17.40;9.98;;;;;;;-1.27;100.00;102426.22;5054926;28;20028;-76
2023/04/05 02:10:08;;;;;;;18.45;10.07;;;;;;;-1.29;100.00;102422.78;5055043;28;20025;-75
2023/04/05 02:12:34;;;;;;;15.50;10.40;;;;;;;-1.30;100.00;102414.31;5054997;28;20191;-76
2023/04/05 02:14:59;;;;;;;16.35;10.02;;;;;;;-1.36;100.00;102400.75;5053102;28;20067;-76
2023/04/05 02:17:25;;;;;;;15.00;9.88;;;;;;;-1.22;100.00;102434.69;5054894;28;20100;-78
2023/04/05 02:19:51;;;;;;;16.02;10.88;;;;;;;-1.29;100.00;102421.09;5054674;28;20025;-77
2023/04/05 02:22:17;;;;;;;17.75;10.20;;;;;;;-1.46;100.00;102395.59;5054611;28;20382;-76
2023/04/05 02:24:43;;;;;;;15.50;10.65;;;;;;;-1.40;100.00;102417.59;5070047;28;20025;-77
2023/04/05 02:27:08;;;;;;;15.13;10.50;;;;;;;-1.30;100.00;102426.16;5055233;28;20017;-76
2023/04/05 02:29:33;;;;;;;17.00;10.77;;;;;;;-1.38;100.00;102423.53;5054600;28;20517;-76
2023/04/05 02:31:59;;;;;;;15.75;10.80;;;;;;;-1.33;100.00;102426.13;5054746;28;20025;-76
2023/04/05 02:34:26;;;;;;;17.10;11.48;;;;;;;-1.38;100.00;102420.13;5053313;28;20032;-76
2023/04/05 02:36:52;;;;;;;15.45;10.52;;;;;;;-1.41;100.00;102420.97;5054408;28;20075;-77
2023/04/05 02:39:18;;;;;;;16.00;11.57;;;;;;;-1.65;100.00;102391.13;5054119;28;20494;-77
2023/04/05 02:41:43;;;;;;;16.65;10.80;;;;;;;-1.52;100.00;102405.63;5069728;28;20043;-76
2023/04/05 02:44:09;;;;;;;16.10;11.05;;;;;;;-1.52;100.00;102413.22;5054266;28;20021;-76
2023/04/05 02:46:34;;;;;;;15.40;11.15;;;;;;;-1.50;100.00;102421.69;5054280;28;20077;-76
2023/04/05 02:48:59;;;;;;;16.33;10.98;;;;;;;-1.51;100.00;102417.47;5054131;28;20105;-76
2023/04/05 02:51:25;;;;;;;15.88;10.80;;;;;;;-1.54;100.00;102421.66;5069178;28;20037;-76
2023/04/05 02:53:51;;;;;;;16.67;11.23;;;;;;;-1.74;100.00;102398.59;5054087;28;20017;-77
2023/04/05 02:56:17;;;;;;;16.08;11.35;;;;;;;-1.81;100.00;102381.63;5054203;28;20083;-78
2023/04/05 02:58:43;;;;;;;18.60;11.73;;;;;;;-1.67;100.00;102408.00;5054151;28;20397;-77
2023/04/05 03:01:08;;;;;;;18.90;11.45;;;;;;;-1.67;100.00;102407.09;5067815;28;20044;-76
2023/04/05 03:03:34;;;;;;;17.85;11.35;;;;;;;-1.76;100.00;102395.22;5053862;28;20470;-76
2023/04/05 03:06:10;;;;;;;15.90;10.60;;;;;;;-1.68;100.00;102402.88;5053901;28;20017;-76
2023/04/05 03:08:42;;;;;;;16.90;11.00;;;;;;;-1.72;100.00;102391.88;5053691;28;20037;-77
2023/04/05 03:11:09;;;;;;;16.05;11.30;;;;;;;-1.71;100.00;102393.56;5053970;28;20024;-77
2023/04/05 03:13:35;;;;;;;15.60;10.98;;;;;;;-1.66;100.00;102396.19;5053806;28;20048;-76
2023/04/05 03:16:01;;;;;;;15.23;10.90;;;;;;;-1.67;100.00;102400.41;5068696;28;20067;-77
2023/04/05 03:18:28;;;;;;;15.48;10.95;;;;;;;-1.85;100.00;102367.25;5053791;28;20104;-76
2023/04/05 03:20:57;;;;;;;18.00;11.02;;;;;;;-1.71;100.00;102392.72;5053603;28;20025;-76
2023/04/05 03:23:30;;;;;;;16.20;10.98;;;;;;;-1.99;100.00;102345.94;5053407;28;20048;-76
2023/04/05 03:26:02;;;;;;;16.85;11.43;;;;;;;-1.74;100.00;102389.31;5053520;28;20040;-76
2023/04/05 03:28:29;;;;;;;19.33;11.45;;;;;;;-2.00;100.00;102346.78;5053532;28;20029;-76
2023/04/05 03:30:54;;;;;;;16.48;11.70;;;;;;;-2.17;100.00;102314.47;5053241;28;20021;-77
2023/04/05 03:33:20;;;;;;;17.25;11.15;;;;;;;-1.78;100.00;102385.03;5053424;28;20374;-77
2023/04/05 03:35:46;;;;;;;17.83;11.30;;;;;;;-1.84;100.00;102377.38;5053471;28;20036;-78
2023/04/05 03:38:11;;;;;;;17.23;12.10;;;;;;;-1.80;100.00;102381.63;5053126;28;20044;-76
2023/04/05 03:40:37;;;;;;;17.50;11.75;;;;;;;-1.82;100.00;102383.31;5053352;28;20462;-77
2023/04/05 03:43:02;;;;;;;17.52;11.48;;;;;;;-1.96;100.00;102361.19;5053092;28;20029;-77
2023/04/05 03:45:30;;;;;;;17.73;11.50;;;;;;;-1.82;100.00;102379.91;5053015;28;20474;-78
2023/04/05 03:47:57;;;;;;;20.83;12.32;;;;;;;-1.85;100.00;102384.97;5053174;28;20037;-76
2023/04/05 03:50:23;;;;;;;17.13;11.75;;;;;;;-2.16;100.00;102333.94;5053023;28;20036;-77
2023/04/05 03:52:48;;;;;;;16.83;10.95;;;;;;;-1.86;100.00;102378.19;5052923;28;20029;-77
2023/04/05 03:55:15;;;;;;;16.75;10.70;;;;;;;-2.10;100.00;102343.25;5053057;28;20025;-79
2023/04/05 03:57:41;;;;;;;15.82;11.25;;;;;;;-1.90;100.00;102381.50;5068222;28;20024;-78
2023/04/05 04:00:13;;;;;;;17.48;12.07;;;;;;;-1.93;100.00;102376.41;5052898;28;20488;-80
2023/04/05 04:02:49;;;;;;;18.73;11.75;;;;;;;-1.96;100.00;102378.91;5052768;28;20033;-77
2023/04/05 04:05:15;;;;;;;16.33;11.65;;;;;;;-2.20;100.00;102342.28;5068478;28;20033;-78
2023/04/05 04:07:42;;;;;;;15.65;10.85;;;;;;;-2.10;100.00;102363.50;5053044;28;20323;-78
2023/04/05 04:10:09;;;;;;;16.90;11.20;;;;;;;-2.08;100.00;102364.38;5052731;28;20033;-77
2023/04/05 04:12:35;;;;;;;17.75;11.30;;;;;;;-2.05;100.00;102374.56;5052366;28;20025;-77
2023/04/05 04:15:00;;;;;;;21.73;13.00;;;;;;;-2.10;100.00;102368.56;5052440;28;20057;-77
2023/04/05 04:17:31;;;;;;;22.65;13.75;;;;;;;-2.14;100.00;102362.63;5052583;28;20017;-77
2023/04/05 04:19:56;;;;;;;22.02;14.55;;;;;;;-2.09;100.00;102366.06;5052541;28;20094;-77
2023/04/05 04:22:25;;;;;;;21.50;14.15;;;;;;;-2.08;100.00;102374.50;5052540;28;20039;-82
2023/04/05 04:24:52;;;;;;;22.52;14.52;;;;;;;-2.12;100.00;102371.09;5052612;28;20027;-77
2023/04/05 04:27:21;;;;;;;22.60;16.52;;;;;;;-2.52;100.00;102306.41;5052362;28;20025;-81
2023/04/05 04:29:47;;;;;;;25.92;15.90;;;;;;;-2.13;100.00;102369.38;5052586;28;20025;-77
2023/04/05 04:32:16;;;;;;;25.08;16.08;;;;;;;-2.33;100.00;102342.97;5052417;28;20075;-77
2023/04/05 04:34:44;;;;;;;24.15;15.50;;;;;;;-2.15;100.00;102371.06;5052201;28;20082;-79
2023/04/05 04:37:21;;;;;;;21.20;14.18;;;;;;;-2.42;100.00;102331.03;5052367;28;20025;-78
2023/04/05 04:39:47;;;;;;;20.52;15.07;;;;;;;-2.66;100.00;102298.63;5052275;28;20364;-77
2023/04/05 04:42:21;;;;;;;24.23;15.63;;;;;;;-2.34;100.00;102351.38;5052250;28;20112;-79
2023/04/05 04:44:47;;;;;;;21.95;14.98;;;;;;;-2.19;100.00;102374.34;5052403;28;20049;-77
2023/04/05 04:47:16;;;;;;;23.50;14.98;;;;;;;-2.31;100.00;102359.84;5052236;28;20021;-77
2023/04/05 04:49:41;;;;;;;21.92;15.07;;;;;;;-2.20;100.00;102375.19;5052164;28;20108;-78
2023/04/05 04:52:07;;;;;;;24.90;15.93;;;;;;;-2.21;100.00;102368.44;5052471;28;20048;-78
2023/04/05 04:54:34;;;;;;;22.27;14.40;;;;;;;-2.29;100.00;102364.94;5052424;28;20079;-79
2023/04/05 04:57:01;;;;;;;21.83;15.23;;;;;;;-2.20;100.00;102370.13;5052073;28;20470;-77
2023/04/05 04:59:28;;;;;;;20.30;14.38;;;;;;;-2.21;100.00;102370.94;5052294;28;20021;-82
2023/04/05 05:01:53;;;;;;;20.88;14.07;;;;;;;-2.21;100.00;102373.47;5051881;28;20033;-81
2023/04/05 05:04:18;;;;;;;21.45;13.80;;;;;;;-2.55;100.00;102318.19;5051993;28;20482;-77
2023/04/05 05:06:44;;;;;;;20.98;13.93;;;;;;;-2.35;100.00;102348.00;5052120;28;20100;-77
2023/04/05 05:09:09;;;;;;;19.13;13.68;;;;;;;-2.36;100.00;102347.94;5052058;28;20017;-80
2023/04/05 05:11:35;;;;;;;23.75;14.07;;;;;;;-2.24;100.00;102355.75;5052069;28;20025;-80
2023/04/05 05:14:00;;;;;;;21.45;14.10;;;;;;;-2.13;100.00;102368.53;5052046;28;20048;-77
2023/04/05 05:16:26;;;;;;;22.52;14.38;;;;;;;-2.12;100.00;102370.25;5051590;28;20025;-77
2023/04/05 05:18:52;;;;;;;22.70;13.98;;;;;;;-2.10;100.00;102366.88;5051704;28;20025;-77
2023/04/05 05:21:19;;;;;;;20.55;14.13;;;;;;;-2.18;100.00;102355.81;5051748;28;20068;-79
2023/04/05 05:23:45;;;;;;;22.63;15.07;;;;;;;-2.04;100.00;102372.06;5051988;28;20064;-77
2023/04/05 05:26:12;;;;;;;24.75;15.27;;;;;;;-2.00;100.00;102360.28;5055785;28;20043;-80
2023/04/05 05:28:38;;;;;;;20.45;14.90;;;;;;;-2.19;100.00;102320.38;5055544;28;20043;-77
2023/04/05 05:31:03;;;;;;;21.05;14.18;;;;;;;-1.90;100.00;102356.19;5071097;28;20386;-77
2023/04/05 05:33:29;;;;;;;21.40;15.75;;;;;;;-1.85;100.00;102363.03;5055298;28;20071;-77
2023/04/05 05:35:54;;;;;;;22.00;14.77;;;;;;;-1.77;100.00;102360.56;5055216;28;20100;-77
2023/04/05 05:38:20;;;;;;;22.17;15.55;;;;;;;-1.70;100.00;102358.97;5055382;28;20091;-78
2023/04/05 05:40:46;;;;;;;23.13;14.68;;;;;;;-1.62;100.00;102359.91;5055472;28;20083;-77
2023/04/05 05:43:11;;;;;;;19.60;14.73;;;;;;;-1.60;100.00;102346.41;5055383;28;20390;-78
2023/04/05 05:45:36;;;;;;;20.98;14.95;;;;;;;-1.44;100.00;102357.59;5055250;28;20417;-77
2023/04/05 05:48:02;;;;;;;20.17;15.23;;;;;;;-1.60;100.00;102310.97;5055070;28;20108;-78
2023/04/05 05:50:31;;;;;;;20.23;14.52;;;;;;;-1.21;100.00;102355.28;5054999;28;20096;-79
2023/04/05 05:52:57;;;;;;;22.25;14.90;;;;;;;-1.13;100.00;102362.97;5055038;28;20033;-78
2023/04/05 05:55:22;;;;;;;20.42;14.27;;;;;;;-1.04;100.00;102368.13;5055209;28;20083;-78
2023/04/05 05:57:48;;;;;;;20.08;14.43;;;;;;;-0.93;100.00;102364.00;5055354;28;20029;-77
2023/04/05 06:00:14;;;;;;;20.65;14.48;;;;;;;-0.81;100.00;102369.19;5055112;28;20025;-78
2023/04/05 06:02:40;;;;;;;19.40;14.30;;;;;;;-0.88;100.00;102342.94;5054834;28;20036;-78
2023/04/05 06:05:05;;;;;;;21.73;14.10;;;;;;;-0.70;100.00;102344.75;5054565;28;20021;-78
2023/04/05 06:07:34;;;;;;;19.83;14.23;;;;;;;-0.52;100.00;102363.50;5055214;28;20020;-79
2023/04/05 06:10:00;;;;;;;21.15;14.02;;;;;;;-0.67;100.00;102329.59;5054908;28;20021;-78
2023/04/05 06:12:26;;;;;;;21.45;14.57;;;;;;;-0.46;100.00;102350.88;5054766;28;20155;-78
2023/04/05 06:14:51;;;;;;;21.92;15.63;;;;;;;-0.08;100.00;102363.81;5054952;28;20029;-78
2023/04/05 06:17:16;;;;;;;20.38;14.35;;;;;;;1.10;100.00;102372.66;5054840;28;20496;-78
2023/04/05 06:19:42;;;;;;;18.50;13.93;;;;;;;1.97;99.21;102360.72;5053183;28;20025;-74
2023/04/05 06:22:07;;;;;;;18.65;12.55;;;;;;;2.82;94.23;102368.81;5055268;28;20033;-77
2023/04/05 06:24:32;;;;;;;20.25;12.65;;;;;;;3.17;90.36;102371.97;5055155;28;20071;-76
2023/04/05 06:26:58;;;;;;;14.77;11.45;;;;;;;3.09;89.57;102332.91;5054612;28;20352;-78
2023/04/05 06:29:23;;;;;;;18.95;12.43;;;;;;;3.99;87.07;102343.97;5054624;28;20033;-78
2023/04/05 06:31:49;;;;;;;17.45;11.77;;;;;;;5.61;79.35;102350.13;5054375;28;20025;-77
2023/04/05 06:34:17;;;;;;;18.05;11.75;;;;;;;7.01;72.93;102361.78;5054597;28;20043;-77
2023/04/05 06:36:42;;;;;;;18.60;11.02;;;;;;;8.05;68.24;102341.06;5054255;28;20033;-78
2023/04/05 06:39:08;;;;;;;18.60;11.20;;;;;;;9.16;62.38;102340.28;5054249;28;20056;-74
2023/04/05 06:41:35;;;;;;;14.55;10.20;;;;;;;9.93;58.59;102355.69;5054294;28;20116;-86
2023/04/05 06:44:00;;;;;;;14.15;9.75;;;;;;;10.59;55.42;102334.28;5054703;28;20424;-80
2023/04/05 06:46:25;;;;;;;13.57;9.35;;;;;;;11.24;53.81;102340.31;5054149;28;20059;-80
2023/04/05 06:48:51;;;;;;;14.60;10.45;;;;;;;11.50;52.00;102305.56;5055503;28;20494;-80
2023/04/05 06:51:18;;;;;;;12.82;9.65;;;;;;;11.99;50.85;102344.84;5054531;28;20049;-82
2023/04/05 06:53:44;;;;;;;13.75;9.63;;;;;;;12.30;49.85;102332.22;5054536;28;20104;-81
2023/04/05 06:56:09;;;;;;;15.60;9.77;;;;;;;12.84;46.38;102353.00;5054351;28;20104;-80
2023/04/05 06:58:35;;;;;;;15.98;9.90;;;;;;;13.03;45.14;102353.78;5053996;28;20032;-80
2023/04/05 07:01:01;;;;;;;14.75;10.38;;;;;;;13.10;45.09;102346.53;5054123;28;20021;-81
2023/04/05 07:03:27;;;;;;;19.17;11.20;;;;;;;13.45;43.49;102355.19;5054028;28;20494;-81
2023/04/05 07:05:55;;;;;;;18.05;10.32;;;;;;;13.35;43.35;102333.22;5054033;28;20425;-80
2023/04/05 07:08:21;;;;;;;17.58;10.98;;;;;;;13.39;43.30;102363.28;5053998;28;20025;-81
2023/04/05 07:10:48;;;;;;;16.85;10.82;;;;;;;12.29;45.64;102363.34;5054139;28;20107;-81
2023/04/05 07:13:14;;;;;;;15.70;9.85;;;;;;;10.59;47.43;102364.44;5053931;28;20021;-81
2023/04/05 07:15:40;;;;;;;16.00;10.10;;;;;;;9.09;51.30;102371.44;5053819;28;20033;-80
2023/04/05 07:18:05;;;;;;;15.77;10.18;;;;;;;7.99;52.81;102364.41;5053568;28;20029;-78
2023/04/05 07:20:30;;;;;;;15.20;10.32;;;;;;;7.08;55.75;102355.63;5066981;28;20062;-75
2023/04/05 07:22:57;;;;;;;15.57;10.05;;;;;;;6.36;56.98;102335.00;5054143;28;20042;-80
2023/04/05 07:25:23;;;;;;;18.15;10.85;;;;;;;6.04;58.67;102370.69;5054277;28;20060;-75
2023/04/05 07:27:48;;;;;;;17.65;10.90;;;;;;;5.45;60.66;102346.97;5053830;28;20067;-74
2023/04/05 07:30:13;;;;;;;15.80;10.50;;;;;;;5.30;60.27;102367.72;5053635;28;20096;-76
2023/04/05 07:32:39;;;;;;;17.60;11.98;;;;;;;5.01;62.84;102372.44;5053677;28;20044;-76
2023/04/05 07:35:05;;;;;;;16.60;11.65;;;;;;;4.75;62.93;102358.34;5053348;28;20151;-76
2023/04/05 07:37:30;;;;;;;16.65;10.52;;;;;;;4.72;63.94;102363.50;5053222;28;20053;-76
2023/04/05 07:39:57;;;;;;;18.63;11.45;;;;;;;4.62;64.47;102364.47;5053586;28;20074;-76
2023/04/05 07:42:22;;;;;;;18.60;10.70;;;;;;;4.46;64.01;102352.78;5067623;28;20048;-75
2023/04/05 07:44:47;;;;;;;17.95;11.63;;;;;;;4.50;65.25;102364.63;5053510;28;20429;-75
2023/04/05 07:47:13;;;;;;;16.58;11.57;;;;;;;4.47;66.16;102362.97;5052911;28;20467;-76
2023/04/05 07:49:38;;;;;;;17.20;11.55;;;;;;;4.45;66.29;102369.81;5053068;28;20021;-76
2023/04/05 07:52:05;;;;;;;17.90;10.80;;;;;;;4.51;67.48;102367.16;5053164;28;20060;-75
2023/04/05 07:54:32;;;;;;;19.05;11.82;;;;;;;4.52;66.11;102360.34;5053140;28;20119;-76
2023/04/05 07:56:57;;;;;;;15.98;11.32;;;;;;;4.46;66.49;102352.78;5068262;28;20033;-75
2023/04/05 07:59:23;;;;;;;16.58;10.98;;;;;;;4.50;67.12;102341.63;5052999;28;20029;-76
2023/04/05 08:01:48;;;;;;;18.98;11.63;;;;;;;4.72;66.17;102360.06;5053047;28;20060;-74
2023/04/05 08:04:14;;;;;;;17.70;11.00;;;;;;;4.57;64.85;102333.84;5052777;28;20021;-75
2023/04/05 08:06:39;;;;;;;18.23;11.40;;;;;;;4.58;65.26;102330.41;5052903;28;20033;-81
2023/04/05 08:09:07;;;;;;;16.88;10.52;;;;;;;4.82;64.37;102357.38;5052825;28;20029;-75
2023/04/05 08:11:33;;;;;;;17.88;11.88;;;;;;;4.80;64.63;102348.84;5052860;28;20029;-77
2023/04/05 08:13:59;;;;;;;18.83;11.23;;;;;;;4.94;64.85;102361.47;5052799;28;20053;-79
2023/04/05 08:16:24;;;;;;;19.15;11.30;;;;;;;4.94;65.13;102355.50;5052834;28;20056;-78
2023/04/05 08:18:50;;;;;;;18.55;11.20;;;;;;;5.04;65.08;102360.47;5052778;28;20049;-76
2023/04/05 08:21:15;;;;;;;18.17;12.02;;;;;;;5.08;64.15;102366.38;5052984;28;20017;-76
2023/04/05 08:23:40;;;;;;;17.05;11.38;;;;;;;5.12;64.02;102363.75;5052615;28;20071;-76
2023/04/05 08:26:06;;;;;;;18.20;11.30;;;;;;;5.13;64.75;102351.78;5052775;28;20017;-77
2023/04/05 08:28:32;;;;;;;24.58;12.30;;;;;;;5.01;64.30;102329.78;5052381;28;20440;-75
2023/04/05 08:30:57;;;;;;;17.90;11.35;;;;;;;5.29;64.11;102360.91;5067194;28;20048;-76
2023/04/05 08:33:25;;;;;;;18.30;11.70;;;;;;;5.33;64.79;102364.28;5052464;28;20044;-79
2023/04/05 08:35:50;;;;;;;16.98;11.85;;;;;;;5.14;63.78;102313.34;5052111;28;20028;-80
2023/04/05 08:38:16;;;;;;;20.42;11.45;;;;;;;5.50;63.87;102357.13;5052306;28;20502;-79
2023/04/05 08:40:46;;;;;;;17.70;11.65;;;;;;;5.39;63.79;102326.56;5052484;28;20033;-78
2023/04/05 08:43:39;;;;;;;19.25;11.20;;;;;;;5.68;64.73;102355.97;5052476;28;20082;-77
2023/04/05 08:46:07;;;;;;;16.92;11.32;;;;;;;5.79;63.03;102348.06;5052433;28;20036;-79
2023/04/05 08:48:35;;;;;;;18.25;10.85;;;;;;;5.85;62.02;102351.38;5052547;28;20083;-80
2023/04/05 08:51:01;;;;;;;17.73;11.80;;;;;;;5.96;62.15;102352.03;5052135;28;20081;-80
2023/04/05 08:53:27;;;;;;;15.82;11.13;;;;;;;6.00;61.06;102356.25;5052172;28;20036;-80
2023/04/05 08:55:55;;;;;;;18.42;11.20;;;;;;;5.88;59.36;102324.81;5052300;28;20029;-80
2023/04/05 08:58:22;;;;;;;16.85;10.50;;;;;;;6.08;60.05;102344.97;5052421;28;20021;-76
2023/04/05 09:00:50;;;;;;;15.38;8.95;;;;;;;6.07;57.64;102345.88;5056083;28;20031;-77
2023/04/05 09:03:22;;;;;;;17.55;10.25;;;;;;;6.01;58.67;102322.03;5056367;28;20064;-77
2023/04/05 09:05:50;;;;;;;17.48;9.85;;;;;;;6.14;56.63;102327.75;5056252;28;20075;-77
2023/04/05 09:08:16;;;;;;;16.85;10.20;;;;;;;6.27;57.21;102343.72;5056060;28;20159;-76
2023/04/05 09:10:41;;;;;;;17.83;10.60;;;;;;;6.10;57.39;102308.19;5055168;28;20340;-73
2023/04/05 09:13:07;;;;;;;16.58;10.52;;;;;;;6.21;56.49;102315.66;5057238;28;20044;-77
2023/04/05 09:15:35;;;;;;;15.57;10.27;;;;;;;6.43;58.17;102332.28;5056122;28;20029;-76
2023/04/05 09:18:00;;;;;;;15.25;10.60;;;;;;;6.44;57.57;102323.69;5071214;28;20057;-77
2023/04/05 09:20:26;;;;;;;13.95;9.45;;;;;;;6.61;54.91;102333.59;5055704;28;20053;-75
2023/04/05 09:22:51;;;;;;;16.23;10.05;;;;;;;6.65;54.43;102335.22;5055673;28;20036;-76
2023/04/05 09:25:38;;;;;;;14.05;9.30;;;;;;;6.71;55.38;102334.25;5056157;28;20029;-75
2023/04/05 09:28:10;;;;;;;15.80;8.35;;;;;;;6.74;52.63;102341.88;5056003;28;20021;-87
2023/04/05 09:30:36;;;;;;;13.32;7.32;;;;;;;6.73;51.54;102320.47;5055824;28;20029;-77
2023/04/05 09:33:06;;;;;;;12.50;8.38;;;;;;;6.75;53.91;102307.59;5055786;28;20036;-84
2023/04/05 09:35:32;;;;;;;15.23;8.90;;;;;;;7.02;54.55;102332.63;5055809;28;20032;-83
2023/04/05 09:37:59;;;;;;;12.52;8.52;;;;;;;6.89;50.72;102303.00;5055765;28;20084;-87
2023/04/05 09:40:42;;;;;;;12.20;8.07;;;;;;;7.04;49.54;102330.03;5055831;28;20028;-85
2023/04/05 09:43:08;;;;;;;12.93;8.80;;;;;;;6.66;50.01;102274.44;5056022;28;20025;-91
2023/04/05 09:45:44;;;;;;;15.02;9.13;;;;;;;7.02;49.97;102326.66;5060700;28;20048;-90
2023/04/05 09:48:11;;;;;;;14.27;8.93;;;;;;;7.10;50.48;102329.91;5056104;28;20029;-84
2023/04/05 09:50:37;;;;;;;12.52;8.15;;;;;;;6.92;49.69;102291.81;5070311;28;20060;-86
2023/04/05 09:53:06;;;;;;;16.95;9.07;;;;;;;7.05;50.53;102301.72;5055217;28;20056;-87
2023/04/05 09:55:32;;;;;;;13.52;9.00;;;;;;;7.22;50.50;102319.31;5055556;28;20541;-87
2023/04/05 09:57:58;;;;;;;14.02;9.20;;;;;;;7.14;49.52;102303.25;5055248;28;20108;-90
2023/04/05 10:00:23;;;;;;;12.52;8.93;;;;;;;7.30;50.19;102316.56;5055317;28;20059;-89
2023/04/05 10:02:52;;;;;;;12.57;9.02;;;;;;;7.37;50.91;102318.91;5053765;28;20508;-88
2023/04/05 10:05:18;;;;;;;12.88;8.98;;;;;;;7.38;49.51;102314.63;5055386;28;20029;-86
2023/04/05 10:07:44;;;;;;;13.63;8.13;;;;;;;7.44;48.96;102319.59;5055368;28;20535;-87
2023/04/05 10:10:11;;;;;;;13.38;8.52;;;;;;;7.37;48.58;102311.19;5054798;28;20068;-84
2023/04/05 10:12:38;;;;;;;11.18;7.88;;;;;;;7.35;46.70;102310.41;5055228;28;20227;-87
2023/04/05 10:15:04;;;;;;;12.80;7.80;;;;;;;7.32;46.33;102305.34;5054990;28;20025;-77
2023/04/05 10:17:32;;;;;;;14.77;7.97;;;;;;;7.36;47.68;102301.78;5054900;28;20408;-76
2023/04/05 10:19:57;;;;;;;14.13;8.70;;;;;;;7.39;46.93;102298.31;5054937;28;20032;-76
2023/04/05 10:22:31;;;;;;;12.38;8.20;;;;;;;7.43;50.11;102276.78;5054647;28;20436;-76
2023/04/05 10:25:08;;;;;;;13.32;8.27;;;;;;;7.73;50.74;102293.09;5055170;28;20536;-76
2023/04/05 10:27:47;;;;;;;13.65;9.35;;;;;;;7.69;50.06;102260.66;5055433;28;20013;-80
2023/04/05 10:30:15;;;;;;;13.65;9.00;;;;;;;7.91;47.60;102289.19;5055772;28;20033;-76
2023/04/05 10:33:02;;;;;;;12.93;8.57;;;;;;;7.89;46.74;102283.25;5054739;28;20020;-77
2023/04/05 10:35:39;;;;;;;13.60;8.15;;;;;;;7.83;45.25;102296.28;5054628;28;20381;-76
2023/04/05 10:38:22;;;;;;;13.48;8.75;;;;;;;7.74;46.93;102287.06;5054344;28;20560;-77
2023/04/05 10:40:52;;;;;;;13.07;8.73;;;;;;;7.56;45.76;102261.88;5054609;28;20112;-76
2023/04/05 10:43:24;;;;;;;11.07;8.15;;;;;;;7.73;46.71;102282.81;5054728;28;20029;-77
2023/04/05 10:45:53;;;;;;;13.00;7.75;;;;;;;7.86;47.23;102285.88;5054529;28;20047;-83
2023/04/05 10:48:51;;;;;;;10.30;7.47;;;;;;;7.92;46.24;102281.41;5054603;28;20060;-76
2023/04/05 10:51:17;;;;;;;16.15;8.68;;;;;;;7.91;47.06;102261.72;4992861;28;20100;-76
2023/04/05 10:53:44;;;;;;;12.32;8.25;;;;;;;7.94;46.80;102251.34;4992962;28;20590;-76
2023/04/05 10:56:11;;;;;;;12.35;8.05;;;;;;;7.92;47.72;102235.13;4976467;28;20070;-76
2023/04/05 10:58:39;;;;;;;13.07;7.95;;;;;;;8.08;45.90;102247.53;4991790;28;20496;-74
2023/04/05 11:01:05;;;;;;;12.18;8.32;;;;;;;8.21;44.59;102261.72;4993416;28;20034;-73
2023/04/05 11:03:50;;;;;;;12.00;7.85;;;;;;;8.29;45.32;102268.31;4992749;28;20587;-77
2023/04/05 11:06:20;;;;;;;10.45;7.35;;;;;;;8.32;43.82;102259.66;4992474;28;20041;-77
2023/04/05 11:08:47;;;;;;;11.25;7.13;;;;;;;8.33;41.27;102261.34;4992678;28;20097;-75
2023/04/05 11:11:15;;;;;;;11.88;7.85;;;;;;;8.30;42.34;102251.97;4992536;28;20465;-76
2023/04/05 11:13:48;;;;;;;10.48;7.43;;;;;;;8.18;41.34;102233.50;4992350;28;20542;-74